createdAt,value
2019-05-06T00:00:17.792Z,13.33
2019-05-06T00:02:48.247Z,12.53
2019-05-06T00:05:17.341Z,14.55
2019-05-06T00:07:53.808Z,14.27
2019-05-06T00:10:24.552Z,14.00
2019-05-06T00:12:54.253Z,13.83
2019-05-06T00:15:24.672Z,15.80
2019-05-06T00:17:54.045Z,17.93
2019-05-06T00:20:24.341Z,18.63
2019-05-06T00:22:55.128Z,17.63
2019-05-06T00:25:41.636Z,19.63
2019-05-06T00:28:24.536Z,20.93
2019-05-06T00:31:09.615Z,22.00
2019-05-06T00:33:28.381Z,21.20
2019-05-06T00:36:00.217Z,18.93
2019-05-06T00:38:27.789Z,17.73
2019-05-06T00:41:14.430Z,15.33
2019-05-06T00:43:56.485Z,15.00
2019-05-06T00:46:25.588Z,14.25
2019-05-06T00:48:54.440Z,13.85
2019-05-06T00:51:24.271Z,13.43
2019-05-06T00:54:00.852Z,13.50
2019-05-06T00:56:29.739Z,13.43
2019-05-06T00:58:59.348Z,13.08
2019-05-06T01:01:29.826Z,12.40
2019-05-06T01:03:58.658Z,12.50
2019-05-06T01:06:27.569Z,12.60
2019-05-06T01:08:56.440Z,12.53
2019-05-06T01:11:26.368Z,17.62
2019-05-06T01:13:56.576Z,18.15
2019-05-06T01:16:25.464Z,17.57
2019-05-06T01:18:54.456Z,17.27
2019-05-06T01:21:29.343Z,15.10
2019-05-06T01:23:58.484Z,13.72
2019-05-06T01:26:27.373Z,13.83
2019-05-06T01:28:56.567Z,13.72
2019-05-06T01:31:40.577Z,14.20
2019-05-06T01:34:04.095Z,13.83
2019-05-06T01:36:34.331Z,12.87
2019-05-06T01:39:26.831Z,13.83
2019-05-06T01:42:06.392Z,12.67
2019-05-06T01:44:35.995Z,11.80
2019-05-06T01:47:06.204Z,12.30
2019-05-06T01:49:35.518Z,12.53
2019-05-06T01:52:05.624Z,12.40
2019-05-06T01:54:34.940Z,12.28
2019-05-06T01:57:04.392Z,13.37
2019-05-06T01:59:34.203Z,13.22
2019-05-06T02:02:06.603Z,12.15
2019-05-06T02:04:37.306Z,13.00
2019-05-06T02:07:06.940Z,12.07
2019-05-06T02:09:36.155Z,13.00
2019-05-06T02:12:06.359Z,13.18
2019-05-06T02:14:38.329Z,12.57
2019-05-06T02:17:07.103Z,13.17
2019-05-06T02:19:36.913Z,12.40
2019-05-06T02:22:08.469Z,14.34
2019-05-06T02:24:38.992Z,12.67
2019-05-06T02:27:07.781Z,13.80
2019-05-06T02:29:43.343Z,13.33
2019-05-06T02:32:25.612Z,13.35
2019-05-06T02:34:54.317Z,13.63
2019-05-06T02:37:38.593Z,13.95
2019-05-06T02:40:25.282Z,12.27
2019-05-06T02:42:55.168Z,12.13
2019-05-06T02:45:25.226Z,12.55
2019-05-06T02:48:13.906Z,12.27
2019-05-06T02:50:44.909Z,12.85
2019-05-06T02:53:15.227Z,12.97
2019-05-06T02:55:44.533Z,12.85
2019-05-06T02:58:14.811Z,13.20
2019-05-06T03:00:43.437Z,12.80
2019-05-06T03:03:14.075Z,15.30
2019-05-06T03:05:44.020Z,14.90
2019-05-06T03:08:13.697Z,15.73
2019-05-06T03:10:44.100Z,16.30
2019-05-06T03:13:19.139Z,17.20
2019-05-06T03:15:48.962Z,16.73
2019-05-06T03:18:17.643Z,17.03
2019-05-06T03:20:59.823Z,16.00
2019-05-06T03:23:35.170Z,15.20
2019-05-06T03:26:06.960Z,14.05
2019-05-06T03:28:36.753Z,13.77
2019-05-06T03:31:08.018Z,12.37
2019-05-06T03:33:55.131Z,12.70
2019-05-06T03:36:22.724Z,12.60
2019-05-06T03:38:42.862Z,12.40
2019-05-06T03:41:10.085Z,11.46
2019-05-06T03:43:38.973Z,12.30
2019-05-06T03:46:09.218Z,11.80
2019-05-06T03:48:45.460Z,13.70
2019-05-06T03:51:14.353Z,13.50
2019-05-06T03:53:44.161Z,12.60
2019-05-06T03:56:18.879Z,13.95
2019-05-06T03:58:45.024Z,13.95
2019-05-06T04:01:15.245Z,14.60
2019-05-06T04:03:51.365Z,14.30
2019-05-06T04:06:14.463Z,13.70
2019-05-06T04:08:43.925Z,14.55
2019-05-06T04:11:13.724Z,14.23
2019-05-06T04:13:43.798Z,14.23
2019-05-06T04:16:17.685Z,14.58
2019-05-06T04:18:48.532Z,14.23
2019-05-06T04:21:19.045Z,13.60
2019-05-06T04:23:53.358Z,13.47
2019-05-06T04:26:24.123Z,14.07
2019-05-06T04:28:53.524Z,12.70
2019-05-06T04:31:22.918Z,12.95
2019-05-06T04:34:08.441Z,12.70
2019-05-06T04:36:23.924Z,11.80
2019-05-06T04:38:54.002Z,13.07
2019-05-06T04:41:26.520Z,12.90
2019-05-06T04:43:53.546Z,13.30
2019-05-06T04:46:23.619Z,13.40
2019-05-06T04:48:54.663Z,12.35
2019-05-06T04:51:24.752Z,12.10
2019-05-06T04:53:53.899Z,12.47
2019-05-06T04:56:23.678Z,12.37
2019-05-06T04:58:53.783Z,12.70
2019-05-06T05:01:23.458Z,11.53
2019-05-06T05:03:54.018Z,12.27
2019-05-06T05:06:23.188Z,12.83
2019-05-06T05:08:53.288Z,13.17
2019-05-06T05:11:24.372Z,17.92
2019-05-06T05:13:54.806Z,20.77
2019-05-06T05:16:24.920Z,20.80
2019-05-06T05:18:55.343Z,20.67
2019-05-06T05:21:23.924Z,15.37
2019-05-06T05:23:53.583Z,12.90
2019-05-06T05:26:22.666Z,12.03
2019-05-06T05:28:53.248Z,10.82
2019-05-06T05:31:23.026Z,10.03
2019-05-06T05:33:52.647Z,10.37
2019-05-06T05:36:23.219Z,9.33
2019-05-06T05:38:52.390Z,9.28
2019-05-06T05:41:23.327Z,9.13
2019-05-06T05:44:09.424Z,8.28
2019-05-06T05:46:38.309Z,8.73
2019-05-06T05:49:08.549Z,9.37
2019-05-06T05:51:37.190Z,8.95
2019-05-06T05:54:06.846Z,9.00
2019-05-06T05:56:36.241Z,9.00
2019-05-06T05:59:06.335Z,8.14
2019-05-06T06:01:35.227Z,7.57
2019-05-06T06:04:05.753Z,6.82
2019-05-06T06:06:34.333Z,6.90
2019-05-06T06:09:03.437Z,8.00
2019-05-06T06:11:34.620Z,7.60
2019-05-06T06:14:07.972Z,6.72
2019-05-06T06:16:45.840Z,7.55
2019-05-06T06:19:18.967Z,7.83
2019-05-06T06:21:49.078Z,7.78
2019-05-06T06:24:28.397Z,10.03
2019-05-06T06:26:56.916Z,9.10
2019-05-06T06:29:26.406Z,9.35
2019-05-06T06:32:05.563Z,8.98
2019-05-06T06:34:35.685Z,8.43
2019-05-06T06:37:15.919Z,8.88
2019-05-06T06:39:46.515Z,7.70
2019-05-06T06:42:15.301Z,7.60
2019-05-06T06:44:44.143Z,7.57
2019-05-06T06:47:13.135Z,6.50
2019-05-06T06:49:42.388Z,6.75
2019-05-06T06:52:14.769Z,6.83
2019-05-06T06:54:43.816Z,5.85
2019-05-06T06:57:34.348Z,6.17
2019-05-06T07:00:39.833Z,6.08
2019-05-06T07:03:12.135Z,6.70
2019-05-06T07:05:42.418Z,6.37
2019-05-06T07:08:12.708Z,5.40
2019-05-06T07:10:43.327Z,5.12
2019-05-06T07:13:13.783Z,4.83
2019-05-06T07:15:42.955Z,5.17
2019-05-06T07:18:13.441Z,5.40
2019-05-06T07:20:46.588Z,5.00
2019-05-06T07:23:32.665Z,4.87
2019-05-06T07:26:03.094Z,4.07
2019-05-06T07:28:32.668Z,4.15
2019-05-06T07:31:17.393Z,4.92
2019-05-06T07:33:33.493Z,4.50
2019-05-06T07:36:02.840Z,3.85
2019-05-06T07:38:32.723Z,4.10
2019-05-06T07:41:04.707Z,3.95
2019-05-06T07:43:52.598Z,3.73
2019-05-06T07:46:30.014Z,3.27
2019-05-06T07:48:58.828Z,3.80
2019-05-06T07:51:27.725Z,3.70
2019-05-06T07:53:56.604Z,4.25
2019-05-06T07:56:25.496Z,3.90
2019-05-06T07:58:55.628Z,3.75
2019-05-06T08:01:26.146Z,3.90
2019-05-06T08:03:54.925Z,3.65
2019-05-06T08:06:23.634Z,4.10
2019-05-06T08:08:53.664Z,3.55
2019-05-06T08:11:25.855Z,3.60
2019-05-06T08:13:53.050Z,4.03
2019-05-06T08:16:22.659Z,3.95
2019-05-06T08:18:52.480Z,4.15
2019-05-06T08:21:23.499Z,4.22
2019-05-06T08:23:53.208Z,3.58
2019-05-06T08:26:22.585Z,4.28
2019-05-06T08:28:52.706Z,4.15
2019-05-06T08:31:22.765Z,4.87
2019-05-06T08:33:52.365Z,4.10
2019-05-06T08:36:25.952Z,4.72
2019-05-06T08:39:02.911Z,4.20
2019-05-06T08:41:33.175Z,4.35
2019-05-06T08:44:02.839Z,4.35
2019-05-06T08:46:32.896Z,4.83
2019-05-06T08:49:03.196Z,3.50
2019-05-06T08:51:43.062Z,3.75
2019-05-06T08:54:32.356Z,4.07
2019-05-06T08:57:02.459Z,4.57
2019-05-06T08:59:32.087Z,4.15
2019-05-06T09:02:03.158Z,3.20
2019-05-06T09:04:32.156Z,4.00
2019-05-06T09:07:02.968Z,3.73
2019-05-06T09:09:32.621Z,4.67
2019-05-06T09:12:02.685Z,4.00
2019-05-06T09:14:32.628Z,3.40
2019-05-06T09:17:02.803Z,3.27
2019-05-06T09:19:33.139Z,3.70
2019-05-06T09:22:02.618Z,4.17
2019-05-06T09:24:32.599Z,4.00
2019-05-06T09:27:03.102Z,3.98
2019-05-06T09:29:39.207Z,4.47
2019-05-06T09:32:15.107Z,4.20
2019-05-06T09:34:52.738Z,4.03
2019-05-06T09:37:23.990Z,4.22
2019-05-06T09:39:53.446Z,3.40
2019-05-06T09:42:23.061Z,4.07
2019-05-06T09:44:54.078Z,3.58
2019-05-06T09:47:29.971Z,3.53
2019-05-06T09:49:58.898Z,4.05
2019-05-06T09:52:27.716Z,3.70
2019-05-06T09:55:14.500Z,3.72
2019-05-06T09:57:47.860Z,4.55
2019-05-06T10:03:06.121Z,3.75
2019-05-06T10:05:34.944Z,4.50
2019-05-06T10:08:03.824Z,4.00
2019-05-06T10:10:32.894Z,4.00
2019-05-06T10:13:02.813Z,3.97
2019-05-06T10:15:32.676Z,3.90
2019-05-06T10:18:07.526Z,3.75
2019-05-06T10:20:38.975Z,3.90
2019-05-06T10:23:07.757Z,4.05
2019-05-06T10:25:38.611Z,3.77
2019-05-06T10:28:12.475Z,4.33
2019-05-06T10:30:40.893Z,4.10
2019-05-06T10:33:17.171Z,3.87
2019-05-06T10:35:46.040Z,4.90
2019-05-06T10:38:16.365Z,4.00
2019-05-06T10:41:00.129Z,3.80
2019-05-06T10:43:18.340Z,4.00
2019-05-06T10:45:47.148Z,3.77
2019-05-06T10:48:15.727Z,3.87
2019-05-06T10:50:46.258Z,4.13
2019-05-06T10:53:19.453Z,3.17
2019-05-06T10:55:56.204Z,4.03
2019-05-06T10:58:25.094Z,4.40
2019-05-06T11:01:07.824Z,3.87
2019-05-06T11:03:37.008Z,4.03
2019-05-06T11:06:05.736Z,3.83
2019-05-06T11:08:34.534Z,3.87
2019-05-06T11:11:14.932Z,3.92
2019-05-06T11:13:33.167Z,4.25
2019-05-06T11:16:03.347Z,4.17
2019-05-06T11:18:33.405Z,4.33
2019-05-06T11:21:03.405Z,3.98
2019-05-06T11:23:33.789Z,4.60
2019-05-06T11:26:03.230Z,4.57
2019-05-06T11:28:48.685Z,4.58
2019-05-06T11:31:22.968Z,4.65
2019-05-06T11:33:57.053Z,4.17
2019-05-06T11:36:46.037Z,4.47
2019-05-06T11:39:14.615Z,4.40
2019-05-06T11:41:59.585Z,3.75
2019-05-06T11:44:13.708Z,4.30
2019-05-06T11:46:43.028Z,4.28
2019-05-06T11:49:12.559Z,4.63
2019-05-06T11:51:43.541Z,5.10
2019-05-06T11:54:17.496Z,4.57
2019-05-06T11:56:50.810Z,4.90
2019-05-06T11:59:14.321Z,4.27
2019-05-06T12:01:44.966Z,4.00
2019-05-06T12:04:14.015Z,4.20
2019-05-06T12:06:43.449Z,4.90
2019-05-06T12:09:16.521Z,4.37
2019-05-06T12:11:43.341Z,3.80
2019-05-06T12:14:12.530Z,4.10
2019-05-06T12:16:41.577Z,3.98
2019-05-06T12:19:12.890Z,4.00
2019-05-06T12:21:42.929Z,3.83
2019-05-06T12:24:12.252Z,3.33
2019-05-06T12:26:42.945Z,3.77
2019-05-06T12:29:12.669Z,4.10
2019-05-06T12:31:42.258Z,3.42
2019-05-06T12:34:12.494Z,3.30
2019-05-06T12:36:42.726Z,3.75
2019-05-06T12:39:18.573Z,4.40
2019-05-06T12:41:53.251Z,4.03
2019-05-06T12:44:23.096Z,4.43
2019-05-06T12:47:05.388Z,3.00
2019-05-06T12:49:34.588Z,3.87
2019-05-06T12:52:04.113Z,3.87
2019-05-06T12:54:33.624Z,3.93
2019-05-06T12:57:03.498Z,3.75
2019-05-06T12:59:32.092Z,4.20
2019-05-06T13:02:02.732Z,4.30
2019-05-06T13:04:50.183Z,5.13
2019-05-06T13:07:03.050Z,3.85
2019-05-06T13:09:33.174Z,4.50
2019-05-06T13:12:03.713Z,3.60
2019-05-06T13:14:33.240Z,3.20
2019-05-06T13:17:02.778Z,3.70
2019-05-06T13:19:32.731Z,4.15
2019-05-06T13:22:03.733Z,3.63
2019-05-06T13:24:32.587Z,3.80
2019-05-06T13:27:02.540Z,4.15
2019-05-06T13:29:35.597Z,3.72
2019-05-06T13:32:03.625Z,3.87
2019-05-06T13:34:33.357Z,3.77
2019-05-06T13:37:03.750Z,3.40
2019-05-06T13:39:33.199Z,3.50
2019-05-06T13:42:02.362Z,3.90
2019-05-06T13:44:32.022Z,3.33
2019-05-06T13:47:02.955Z,4.10
2019-05-06T13:49:33.734Z,3.47
2019-05-06T13:52:05.177Z,3.65
2019-05-06T13:54:34.911Z,3.70
2019-05-06T13:57:04.417Z,4.30
2019-05-06T13:59:35.346Z,3.55
2019-05-06T14:02:17.025Z,3.98
2019-05-06T14:04:45.615Z,3.65
2019-05-06T14:07:14.393Z,3.60
2019-05-06T14:09:43.785Z,3.62
2019-05-06T14:12:12.476Z,4.67
2019-05-06T14:14:43.163Z,4.58
2019-05-06T14:17:12.799Z,4.73
2019-05-06T14:19:42.883Z,4.47
2019-05-06T14:22:12.630Z,4.73
2019-05-06T14:24:44.191Z,4.90
2019-05-06T14:27:14.627Z,4.87
2019-05-06T14:29:44.736Z,4.55
2019-05-06T14:32:14.803Z,5.17
2019-05-06T14:34:43.579Z,5.10
2019-05-06T14:37:12.277Z,4.37
2019-05-06T14:39:53.336Z,4.87
2019-05-06T14:42:13.018Z,5.07
2019-05-06T14:44:43.248Z,4.60
2019-05-06T14:47:18.944Z,4.77
2019-05-06T14:49:47.420Z,4.50
2019-05-06T14:52:15.982Z,5.10
2019-05-06T14:54:53.194Z,5.03
2019-05-06T14:57:22.946Z,4.97
2019-05-06T14:59:55.248Z,5.03
2019-05-06T15:02:26.089Z,4.60
2019-05-06T15:04:53.993Z,5.00
2019-05-06T15:07:22.578Z,4.30
2019-05-06T15:10:02.559Z,4.53
2019-05-06T15:12:22.895Z,5.10
2019-05-06T15:14:52.890Z,4.83
2019-05-06T15:17:23.043Z,4.40
2019-05-06T15:19:52.563Z,4.65
2019-05-06T15:22:22.502Z,4.00
2019-05-06T15:24:53.745Z,4.03
2019-05-06T15:27:22.756Z,4.87
2019-05-06T15:29:53.957Z,4.78
2019-05-06T15:32:24.313Z,4.17
2019-05-06T15:35:02.512Z,4.70
2019-05-06T15:37:33.853Z,4.53
2019-05-06T15:40:05.234Z,4.80
2019-05-06T15:42:34.410Z,3.85
2019-05-06T15:45:05.120Z,4.00
2019-05-06T15:47:33.623Z,4.28
2019-05-06T15:50:02.724Z,3.98
2019-05-06T15:52:33.582Z,4.30
2019-05-06T15:55:03.388Z,4.58
2019-05-06T15:57:32.849Z,3.87
2019-05-06T16:00:02.597Z,4.42
2019-05-06T16:02:33.919Z,4.33
2019-05-06T16:05:11.282Z,4.53
2019-05-06T16:07:36.991Z,4.60
2019-05-06T16:10:04.835Z,4.72
2019-05-06T16:12:33.910Z,4.42
2019-05-06T16:15:02.707Z,4.92
2019-05-06T16:17:32.859Z,4.92
2019-05-06T16:20:02.773Z,4.37
2019-05-06T16:22:33.662Z,4.28
2019-05-06T16:25:13.181Z,4.20
2019-05-06T16:27:44.051Z,4.70
2019-05-06T16:30:14.280Z,5.03
2019-05-06T16:32:43.277Z,4.72
2019-05-06T16:35:14.244Z,4.53
2019-05-06T16:37:42.882Z,4.97
2019-05-06T16:40:12.406Z,4.80
2019-05-06T16:42:46.024Z,4.63
2019-05-06T16:45:14.574Z,4.62
2019-05-06T16:47:44.737Z,4.17
2019-05-06T16:50:15.616Z,3.92
2019-05-06T16:52:45.526Z,4.60
2019-05-06T16:55:24.251Z,4.00
2019-05-06T16:58:02.430Z,3.90
2019-05-06T17:00:34.227Z,3.80
2019-05-06T17:03:07.398Z,4.50
2019-05-06T17:05:38.639Z,4.80
2019-05-06T17:08:07.224Z,4.53
2019-05-06T17:10:35.805Z,4.62
2019-05-06T17:13:06.943Z,4.04
2019-05-06T17:15:36.165Z,5.22
2019-05-06T17:18:06.287Z,4.53
2019-05-06T17:20:35.564Z,4.35
2019-05-06T17:23:06.297Z,3.90
2019-05-06T17:25:34.873Z,3.72
2019-05-06T17:28:14.414Z,4.15
2019-05-06T17:30:50.833Z,3.95
2019-05-06T17:33:34.416Z,5.03
2019-05-06T17:36:04.857Z,4.50
2019-05-06T17:38:38.241Z,4.10
2019-05-06T17:41:07.219Z,4.47
2019-05-06T17:43:40.516Z,4.45
2019-05-06T17:46:07.001Z,5.35
2019-05-06T17:48:37.276Z,4.28
2019-05-06T17:51:13.040Z,4.40
2019-05-06T17:53:43.340Z,4.10
2019-05-06T17:56:12.777Z,4.20
2019-05-06T17:58:42.521Z,5.00
2019-05-06T18:01:14.125Z,4.00
2019-05-06T18:03:43.000Z,5.30
2019-05-06T18:06:14.172Z,4.87
2019-05-06T18:08:43.307Z,5.37
2019-05-06T18:11:12.910Z,5.47
2019-05-06T18:13:43.299Z,4.72
2019-05-06T18:16:13.215Z,4.33
2019-05-06T18:18:52.360Z,4.87
2019-05-06T18:21:22.941Z,5.17
2019-05-06T18:23:53.157Z,4.90
2019-05-06T18:26:22.957Z,5.30
2019-05-06T18:28:53.377Z,6.03
2019-05-06T18:31:22.190Z,5.47
2019-05-06T18:33:52.750Z,5.67
2019-05-06T18:36:22.845Z,6.30
2019-05-06T18:38:52.522Z,6.60
2019-05-06T18:41:23.611Z,6.47
2019-05-06T18:43:53.763Z,6.22
2019-05-06T18:46:22.483Z,6.67
2019-05-06T18:48:52.400Z,6.53
2019-05-06T18:51:22.311Z,6.03
2019-05-06T18:53:52.454Z,6.77
2019-05-06T18:56:22.357Z,7.33
2019-05-06T18:58:53.100Z,6.60
2019-05-06T19:01:23.308Z,5.70
2019-05-06T19:03:57.809Z,7.28
2019-05-06T19:06:26.391Z,6.12
2019-05-06T19:08:59.582Z,6.15
2019-05-06T19:11:28.411Z,6.33
2019-05-06T19:13:57.562Z,6.25
2019-05-06T19:16:26.453Z,6.08
2019-05-06T19:18:55.033Z,6.50
2019-05-06T19:21:24.514Z,6.80
2019-05-06T19:23:54.823Z,6.50
2019-05-06T19:26:23.848Z,6.90
2019-05-06T19:28:52.742Z,6.33
2019-05-06T19:31:22.836Z,7.00
2019-05-06T19:33:53.577Z,6.85
2019-05-06T19:36:24.241Z,6.27
2019-05-06T19:38:53.124Z,7.33
2019-05-06T19:41:22.372Z,6.62
2019-05-06T19:43:52.632Z,7.65
2019-05-06T19:46:21.421Z,7.27
2019-05-06T19:48:52.276Z,7.40
2019-05-06T19:51:22.549Z,7.60
2019-05-06T19:53:51.057Z,7.92
2019-05-06T19:56:19.743Z,7.87
2019-05-06T19:58:49.671Z,7.87
2019-05-06T20:01:18.583Z,7.47
2019-05-06T20:03:47.356Z,7.70
2019-05-06T20:06:22.605Z,7.55
2019-05-06T20:11:42.575Z,7.00
2019-05-06T20:14:13.527Z,7.93
2019-05-06T20:16:42.171Z,7.03
2019-05-06T20:19:12.823Z,7.83
2019-05-06T20:21:42.383Z,7.12
2019-05-06T20:24:12.818Z,7.40
2019-05-06T20:26:43.088Z,8.03
2019-05-06T20:29:11.859Z,8.97
2019-05-06T20:31:42.729Z,7.60
2019-05-06T20:34:12.839Z,8.60
2019-05-06T20:36:42.928Z,9.13
2019-05-06T20:39:12.212Z,8.33
2019-05-06T20:41:42.491Z,8.50
2019-05-06T20:44:12.388Z,8.10
2019-05-06T20:46:42.914Z,7.58
2019-05-06T20:49:13.188Z,8.37
2019-05-06T20:51:42.500Z,7.90
2019-05-06T20:54:12.951Z,8.88
2019-05-06T20:56:42.207Z,9.78
2019-05-06T20:59:12.277Z,9.30
2019-05-06T21:01:42.591Z,11.35
2019-05-06T21:04:13.037Z,10.03
2019-05-06T21:06:42.710Z,13.17
2019-05-06T21:09:12.611Z,11.70
2019-05-06T21:11:42.251Z,12.57
2019-05-06T21:14:13.243Z,12.77
2019-05-06T21:16:42.298Z,14.47
2019-05-06T21:19:12.617Z,14.00
2019-05-06T21:21:43.226Z,13.10
2019-05-06T21:24:12.982Z,13.27
2019-05-06T21:26:46.273Z,13.13
2019-05-06T21:29:13.565Z,13.43
2019-05-06T21:31:42.458Z,11.90
2019-05-06T21:34:12.813Z,12.53
2019-05-06T21:36:42.206Z,12.95
2019-05-06T21:39:13.063Z,12.35
2019-05-06T21:41:42.768Z,11.33
2019-05-06T21:44:13.237Z,12.90
2019-05-06T21:46:42.871Z,13.10
2019-05-06T21:49:12.260Z,14.33
2019-05-06T21:51:42.485Z,16.05
2019-05-06T21:54:12.617Z,14.80
2019-05-06T21:56:42.407Z,16.13
2019-05-06T21:59:12.902Z,15.13
2019-05-06T22:01:43.554Z,14.60
2019-05-06T22:04:12.950Z,15.10
2019-05-06T22:06:45.571Z,16.20
2019-05-06T22:09:13.499Z,16.13
2019-05-06T22:11:42.523Z,20.08
2019-05-06T22:14:12.286Z,20.07
2019-05-06T22:16:43.504Z,19.73
2019-05-06T22:19:12.059Z,20.50
2019-05-06T22:21:57.728Z,19.67
2019-05-06T22:24:28.246Z,15.77
2019-05-06T22:26:57.133Z,14.80
2019-05-06T22:29:25.817Z,11.97
2019-05-06T22:31:54.391Z,10.95
2019-05-06T22:34:23.290Z,11.03
2019-05-06T22:36:54.173Z,10.80
2019-05-06T22:39:22.926Z,10.10
2019-05-06T22:41:52.127Z,10.10
2019-05-06T22:44:22.810Z,10.88
2019-05-06T22:46:51.539Z,9.43
2019-05-06T22:49:22.372Z,9.37
2019-05-06T22:51:52.167Z,11.70
2019-05-06T22:54:24.314Z,11.78
2019-05-06T22:56:52.391Z,11.37
2019-05-06T22:59:24.409Z,11.60
2019-05-06T23:01:54.787Z,12.93
2019-05-06T23:04:25.027Z,13.00
2019-05-06T23:06:53.523Z,14.35
2019-05-06T23:09:24.535Z,14.38
2019-05-06T23:11:52.469Z,16.05
2019-05-06T23:14:31.076Z,19.70
2019-05-06T23:16:53.326Z,19.48
2019-05-06T23:19:24.264Z,17.00
2019-05-06T23:21:53.301Z,15.98
2019-05-06T23:24:22.579Z,11.67
2019-05-06T23:26:52.749Z,12.05
2019-05-06T23:29:22.452Z,10.33
2019-05-06T23:31:52.131Z,10.97
2019-05-06T23:34:22.956Z,11.23
2019-05-06T23:36:58.900Z,11.57
2019-05-06T23:39:57.793Z,12.10
2019-05-06T23:42:44.907Z,13.20
2019-05-06T23:45:32.463Z,16.13
2019-05-06T23:48:19.775Z,18.75
2019-05-06T23:51:07.692Z,19.27
2019-05-06T23:53:54.500Z,18.37
2019-05-06T23:56:39.072Z,15.87
2019-05-06T23:59:08.662Z,11.18
